Terminal Aerodrome Forecast
Issued by NWS

Home | Current Version | Previous Version | Text Only | Print | Product List | Glossary On
Versions: 1 2 3 4 5 6 7 8 9 10 11 12 13 14 15 16 17 18 19
000
FTUS43 KDLH 051100
TAFBRD
TAF
KBRD 051140Z 0512/0612 09006KT P6SM FEW120
     FM051800 13012KT P6SM SCT100
     FM060100 14008KT P6SM SCT040 BKN060
     FM060800 13008KT P6SM -RA BKN025 OVC050=

USA.gov is the U.S. government's official web portal to all federal, state and local government web resources and services.